Renville, Minnesota
Current Conditions -  °F | °C
As of 5:14 AM on Saturday 25 Oct 2014 (Local Time) from KOVL Reporting Station
Clear Clear  
Wind Chill: 52°   Ceiling: Unl
Heat Index: 52°   Visibility: 10mi
Dew Point: 37°   Wind: 6mph
Humidity: 58%   Direction: 310°NW
Pressure: 30.01"   Gusts: NA
Location:  44.79°N, 95.21°W
Report Text: KOVL 251014Z AUTO 31005KT 10SM CLR 11/03 A3001 RMK AO2
Loading
Personal Weather Stations






























Interactive Weather Map New forecast layout! Learn more

10-Day Weather Forecast

Advertisements
Track Severe Weather on mobile